Aérodrome :
LOGIN :

S'inscrire | Disclaimer

   EN    FR    IT 

 










Légende :    VFR   VFR Marginal   IFR   IFR Intensif   IFR Très Intensif
Visi : 
Plafond : 
>= 8 km
>= 3000ft
5 à 8 km
1000 à 3000 ft
1500m à 5 km
500 à 1000 ft
800 à 1500m
200 à 500 ft
< 800m
< 200 ft
Symboles :   Orages  Brouillard  Fortes neiges  Fortes précipitations  Vent > 20 kt
SIGMETs :   Divers  Orages  Givrage  Turbulence  Onde Orograph.  Cendres Volcan.






- Altitude de l'aérodrome : 50 ft
- Code IATA : KOI


EGPA - Kirkwall

DERNIER METAR :
  • 112020Z 24027G40KT 9999 VCSH SCT012CB BKN017 BKN024 05/03 Q0980 RESHRA

METARs EXPIRÉS :
  • 111950Z 24024G34KT 9999 VCSH SCT012CB BKN017 BKN024 05/03 Q0979 RESHRA
  • 111920Z 21023G33KT 3000 SHRA SCT012CB BKN017 BKN024 05/03 Q0979
  • 111850Z 21022G34KT 9999 SHRA SCT011CB BKN018 BKN028 04/03 Q0979 RESHRA
  • 111820Z 22020G30KT 9999 -SHRA SCT011CB BKN018 BKN025 04/03 Q0979 RESHRA RESHSN RESHGS R27/620399
  • 111750Z 21024KT 9999 SHRA FEW016CB BKN026 BKN033 05/03 Q0979

TAF TAF EGPA
Valide du 11 à 21h jusqu'au 12 à 06h UTC


112000Z 1121/1206 21020G30KT 9999 FEW012 SCT020
TEMPO 1121/1206 22028G40KT 6000 SHRA
PROB40
TEMPO 1121/1124 2500 +TSRAGS BKN012CB



MET'MAP, la Météo Aéronautique d'un coup d'oeil ! - Copyright ORBIFLY Décembre 2007 - Disclaimer

ORBIFLY MET'MAP TEAM :

Programmation & Développement : Alexandra Zaïnal
Sur une idée originale de : Baudouin d'Aumeries
Assistance à la programmation : Marc-Olivier Méhu
Soutien technique & logistique : Manuel Goepfert

Contact : metmap@orbifly.com




SOURCES & CREDITS :

   NOAA